Time;durP1;ratioP1;P1;durP2;ratioP2;P2;SDS_P1;SDS_P2;PMS_P1;PMS_P2;Temp;Humidity;BMP_temperature;BMP_pressure;BME280_temperature;BME280_humidity;BME280_pressure;Samples;Min_cycle;Max_cycle;Signal;HPM_P1;HPM_P2
2022/06/13 00:00:38;;;;;;;1.80;0.80;;;13.00;99.90;;;;;;5013137;28;20022;-70
2022/06/13 00:03:05;;;;;;;1.60;0.80;;;13.00;99.90;;;;;;5014484;28;20021;-70
2022/06/13 00:05:34;;;;;;;2.47;1.00;;;13.10;99.90;;;;;;5014453;28;20442;-70
2022/06/13 00:08:01;;;;;;;2.72;0.90;;;13.10;99.90;;;;;;5014611;28;20451;-69
2022/06/13 00:10:29;;;;;;;2.90;0.80;;;13.30;99.90;;;;;;5014254;28;20073;-68
2022/06/13 00:12:56;;;;;;;2.75;0.93;;;13.30;99.90;;;;;;5014393;28;20026;-70
2022/06/13 00:15:24;;;;;;;1.30;0.70;;;13.30;99.90;;;;;;5014134;28;20030;-70
2022/06/13 00:17:51;;;;;;;1.83;0.95;;;13.40;99.90;;;;;;5014201;28;20049;-71
2022/06/13 00:20:18;;;;;;;2.78;1.23;;;13.30;99.90;;;;;;5012736;28;20067;-71
2022/06/13 00:22:46;;;;;;;0.95;0.60;;;13.40;99.90;;;;;;5014186;28;20029;-71
2022/06/13 00:25:14;;;;;;;4.78;0.95;;;13.30;99.90;;;;;;5014107;28;20493;-72
2022/06/13 00:27:41;;;;;;;2.45;1.15;;;13.50;99.90;;;;;;5014040;28;20024;-71
2022/06/13 00:30:10;;;;;;;1.55;0.90;;;13.50;99.90;;;;;;5014248;28;20122;-72
2022/06/13 00:32:37;;;;;;;1.33;0.75;;;13.60;99.90;;;;;;5013974;28;20030;-71
2022/06/13 00:35:05;;;;;;;3.65;1.00;;;13.70;99.90;;;;;;5012601;28;20033;-72
2022/06/13 00:37:32;;;;;;;1.92;0.68;;;13.70;99.90;;;;;;5013802;28;20026;-72
2022/06/13 00:40:00;;;;;;;2.03;0.60;;;13.70;99.90;;;;;;5013920;28;20022;-71
2022/06/13 00:42:30;;;;;;;1.20;0.60;;;13.80;99.90;;;;;;5012547;28;20046;-71
2022/06/13 00:45:12;;;;;;;1.73;0.65;;;13.90;99.90;;;;;;5013041;28;20386;-71
2022/06/13 00:47:43;;;;;;;2.00;0.70;;;13.90;99.90;;;;;;5013768;28;20018;-72
2022/06/13 00:50:15;;;;;;;2.85;0.70;;;14.00;99.90;;;;;;5012479;28;20400;-72
2022/06/13 00:53:10;;;;;;;0.90;0.50;;;14.10;99.90;;;;;;5013751;28;20489;-72
2022/06/13 00:55:45;;;;;;;1.15;0.70;;;14.20;99.90;;;;;;5013743;28;20088;-71
2022/06/13 00:58:13;;;;;;;2.28;0.65;;;14.30;99.90;;;;;;5012196;28;20172;-71
2022/06/13 01:00:44;;;;;;;1.85;0.75;;;14.40;99.90;;;;;;5013624;28;20033;-71
2022/06/13 01:03:12;;;;;;;3.15;0.95;;;14.30;99.90;;;;;;5012327;28;20116;-69
2022/06/13 01:05:44;;;;;;;1.10;0.70;;;14.40;99.90;;;;;;5013670;28;20030;-70
2022/06/13 01:08:12;;;;;;;2.50;0.65;;;14.40;99.90;;;;;;5013538;28;20036;-71
2022/06/13 01:14:10;;;;;;;4.22;0.63;;;14.40;99.90;;;;;;5013892;28;20020;-71
2022/06/13 01:17:24;;;;;;;3.70;0.80;;;14.50;99.90;;;;;;5013303;28;20022;-70
2022/06/13 01:20:21;;;;;;;1.33;0.70;;;14.60;99.90;;;;;;5013287;28;20077;-71
2022/06/13 01:23:10;;;;;;;2.60;0.60;;;14.60;99.90;;;;;;5013202;28;20022;-70
2022/06/13 01:25:37;;;;;;;2.20;0.70;;;14.60;99.90;;;;;;5011817;28;20030;-70
2022/06/13 01:28:42;;;;;;;1.38;0.73;;;14.70;99.90;;;;;;5011743;28;20030;-69
2022/06/13 01:31:21;;;;;;;4.40;0.70;;;14.80;99.90;;;;;;5013366;28;20029;-69
2022/06/13 01:33:53;;;;;;;1.88;0.73;;;14.90;99.90;;;;;;5012983;28;20044;-70
2022/06/13 01:36:38;;;;;;;3.42;1.23;;;15.00;99.90;;;;;;5011663;28;20053;-70
2022/06/13 01:39:06;;;;;;;2.28;0.75;;;15.10;99.90;;;;;;5013397;28;20113;-69
2022/06/13 01:42:00;;;;;;;1.35;0.50;;;15.10;99.90;;;;;;5011684;28;20140;-70
2022/06/13 01:44:39;;;;;;;3.45;1.10;;;15.20;99.90;;;;;;5013004;28;20026;-70
2022/06/13 01:47:32;;;;;;;3.10;0.52;;;15.20;99.90;;;;;;5013011;28;20054;-68
2022/06/13 01:50:21;;;;;;;2.58;0.60;;;15.30;99.90;;;;;;5013137;28;20014;-68
2022/06/13 01:53:05;;;;;;;2.83;0.52;;;15.40;99.90;;;;;;5012748;28;20037;-67
2022/06/13 01:55:55;;;;;;;2.35;0.60;;;15.30;99.90;;;;;;5012858;28;20034;-68
2022/06/13 01:58:25;;;;;;;0.85;0.60;;;15.30;99.90;;;;;;5016934;28;20036;-69
2022/06/13 02:00:59;;;;;;;2.47;0.77;;;15.30;99.90;;;;;;5015608;28;20060;-69
2022/06/13 02:03:33;;;;;;;1.65;0.60;;;15.50;99.90;;;;;;5016982;28;20101;-69
2022/06/13 02:06:13;;;;;;;2.65;0.90;;;15.60;99.90;;;;;;5015754;28;20033;-70
2022/06/13 02:08:50;;;;;;;2.07;0.60;;;15.50;99.90;;;;;;5016980;28;20440;-70
2022/06/13 02:11:31;;;;;;;2.20;0.90;;;15.50;99.90;;;;;;5016953;28;20080;-70
2022/06/13 02:14:17;;;;;;;2.35;0.80;;;15.60;99.90;;;;;;5017027;28;20054;-70
2022/06/13 02:17:06;;;;;;;2.33;0.80;;;15.60;99.90;;;;;;5015452;28;20030;-70
2022/06/13 02:19:40;;;;;;;2.17;0.60;;;15.70;99.90;;;;;;5016523;28;20549;-69
2022/06/13 02:22:27;;;;;;;3.15;1.05;;;15.80;99.90;;;;;;5016649;28;20028;-70
2022/06/13 02:25:12;;;;;;;2.53;0.70;;;15.90;99.90;;;;;;5017020;28;20050;-68
2022/06/13 02:27:41;;;;;;;2.60;0.60;;;15.90;99.90;;;;;;5017165;28;20022;-69
2022/06/13 02:30:18;;;;;;;1.33;0.60;;;16.00;99.90;;;;;;5016432;28;20148;-70
2022/06/13 02:32:53;;;;;;;2.70;0.77;;;15.90;99.90;;;;;;5015178;28;20022;-69
2022/06/13 02:35:33;;;;;;;2.33;0.65;;;15.80;99.90;;;;;;5015047;28;20389;-70
2022/06/13 02:38:21;;;;;;;2.72;0.70;;;15.80;99.90;;;;;;5016360;28;20092;-69
2022/06/13 02:41:01;;;;;;;2.10;0.80;;;15.80;99.90;;;;;;5014896;28;20018;-70
2022/06/13 02:43:32;;;;;;;2.53;0.80;;;16.00;99.90;;;;;;5016368;28;20026;-70
2022/06/13 02:46:05;;;;;;;;;;;16.10;99.90;;;;;;5016597;28;20029;-69
2022/06/13 02:49:09;;;;;;;1.98;0.68;;;16.20;99.90;;;;;;5016137;28;19906;-69
2022/06/13 02:52:07;;;;;;;3.72;0.93;;;16.20;99.90;;;;;;5015755;28;20042;-71
2022/06/13 02:54:46;;;;;;;2.75;0.90;;;16.10;99.90;;;;;;5015513;28;20030;-70
2022/06/13 02:57:29;;;;;;;1.88;0.70;;;16.10;99.90;;;;;;5016157;28;20033;-70
2022/06/13 03:00:20;;;;;;;3.55;1.38;;;16.10;99.90;;;;;;5016030;28;20029;-70
2022/06/13 03:02:52;;;;;;;4.43;0.95;;;16.10;99.90;;;;;;5014573;28;20371;-70
2022/06/13 03:05:52;;;;;;;2.75;0.80;;;16.10;99.90;;;;;;5016132;28;20018;-71
2022/06/13 03:08:40;;;;;;;2.83;0.85;;;16.20;99.90;;;;;;5015183;28;20022;-70
2022/06/13 03:11:31;;;;;;;2.30;0.80;;;16.40;99.90;;;;;;5016012;28;20030;-71
2022/06/13 03:14:07;;;;;;;2.67;0.82;;;16.50;99.90;;;;;;5015727;28;20030;-70
2022/06/13 03:16:44;;;;;;;3.88;1.00;;;16.50;99.90;;;;;;5015680;28;20037;-70
2022/06/13 03:19:22;;;;;;;3.25;1.10;;;16.00;99.90;;;;;;5015469;28;20026;-70
2022/06/13 03:21:54;;;;;;;3.33;0.88;;;15.90;99.90;;;;;;5014079;28;20053;-69
2022/06/13 03:24:42;;;;;;;3.08;0.77;;;16.10;99.90;;;;;;5014186;28;20018;-70
2022/06/13 03:27:23;;;;;;;1.85;0.80;;;16.20;99.90;;;;;;5015401;28;20021;-71
2022/06/13 03:30:04;;;;;;;2.88;0.80;;;16.30;99.90;;;;;;5015714;28;20022;-70
2022/06/13 03:35:44;;;;;;;3.28;1.00;;;16.50;99.90;;;;;;5015073;28;20071;-71
2022/06/13 03:38:17;;;;;;;3.70;1.00;;;16.50;99.90;;;;;;5013646;28;20088;-72
2022/06/13 03:40:55;;;;;;;1.92;0.82;;;16.40;99.90;;;;;;5015131;28;20039;-71
2022/06/13 03:43:34;;;;;;;5.15;0.98;;;16.40;99.90;;;;;;5015134;28;20026;-71
2022/06/13 03:46:10;;;;;;;5.70;0.90;;;16.40;99.90;;;;;;5015088;28;20061;-71
2022/06/13 03:49:23;;;;;;;3.70;1.05;;;16.40;99.90;;;;;;5014833;28;20446;-71
2022/06/13 03:51:54;;;;;;;2.38;1.15;;;16.50;99.90;;;;;;4984732;28;20052;-71
2022/06/13 03:54:55;;;;;;;3.17;1.23;;;16.50;99.90;;;;;;5013451;28;20026;-70
2022/06/13 03:57:41;;;;;;;2.83;0.90;;;16.70;99.90;;;;;;5013232;28;20032;-70
2022/06/13 04:00:13;;;;;;;2.90;1.33;;;16.70;99.90;;;;;;5013362;28;20389;-69
2022/06/13 04:02:42;;;;;;;1.48;0.80;;;16.40;99.90;;;;;;5014699;28;20097;-69
2022/06/13 04:05:29;;;;;;;3.22;0.98;;;16.20;99.90;;;;;;5014600;28;20052;-69
2022/06/13 04:07:57;;;;;;;3.05;0.90;;;16.10;99.90;;;;;;5013085;28;20034;-69
2022/06/13 04:10:25;;;;;;;2.90;1.02;;;16.00;99.90;;;;;;5013110;28;20026;-69
2022/06/13 04:13:26;;;;;;;2.45;1.00;;;16.00;99.90;;;;;;5014330;28;20022;-69
2022/06/13 04:16:20;;;;;;;3.80;1.13;;;16.10;99.90;;;;;;5001137;28;20441;-69
2022/06/13 04:18:59;;;;;;;3.83;0.90;;;15.90;99.90;;;;;;5012862;28;20549;-68
2022/06/13 04:22:12;;;;;;;3.78;1.55;;;15.90;99.90;;;;;;5014607;28;20536;-69
2022/06/13 04:24:58;;;;;;;2.88;0.70;;;16.10;99.90;;;;;;4974031;28;20074;-69
2022/06/13 04:27:42;;;;;;;1.98;1.08;;;16.20;99.90;;;;;;5014293;28;20065;-70
2022/06/13 04:30:16;;;;;;;2.92;0.75;;;16.10;99.90;;;;;;5014260;28;20018;-69
2022/06/13 04:32:53;;;;;;;1.45;0.60;;;16.10;99.90;;;;;;5013990;28;20088;-69
2022/06/13 04:35:20;;;;;;;2.70;0.60;;;16.10;99.90;;;;;;5013423;28;20022;-69
2022/06/13 04:37:49;;;;;;;3.63;0.80;;;16.10;99.90;;;;;;5014452;28;20518;-69
2022/06/13 04:40:23;;;;;;;2.45;0.90;;;15.90;99.90;;;;;;5013928;28;20030;-69
2022/06/13 04:42:52;;;;;;;2.70;0.85;;;16.00;99.90;;;;;;5013912;28;20018;-69
2022/06/13 04:45:26;;;;;;;2.80;1.10;;;16.00;99.90;;;;;;5013987;28;20431;-69
2022/06/13 04:47:56;;;;;;;3.13;1.30;;;15.90;99.90;;;;;;5013803;28;20469;-69
2022/06/13 04:50:55;;;;;;;3.45;1.20;;;16.00;99.90;;;;;;5013795;28;20018;-69
2022/06/13 04:53:44;;;;;;;4.13;1.25;;;15.90;99.90;;;;;;4967396;28;20065;-70
2022/06/13 04:56:11;;;;;;;4.10;1.45;;;15.80;99.90;;;;;;4954084;28;20045;-70
2022/06/13 04:58:42;;;;;;;3.28;1.45;;;15.80;99.90;;;;;;4974536;28;20499;-70
2022/06/13 05:01:21;;;;;;;;;;;15.80;99.90;;;;;;4975091;28;20026;-70
2022/06/13 05:03:49;;;;;;;3.47;1.10;;;15.70;99.90;;;;;;4989369;28;19913;-69
2022/06/13 05:06:39;;;;;;;6.05;1.40;;;15.80;99.90;;;;;;4974638;28;20424;-69
2022/06/13 05:09:15;;;;;;;5.40;1.38;;;15.70;99.90;;;;;;4974716;28;20038;-69
2022/06/13 05:11:51;;;;;;;2.72;0.82;;;15.70;99.90;;;;;;4974513;28;20034;-69
2022/06/13 05:14:31;;;;;;;3.75;0.90;;;15.60;99.90;;;;;;4974350;28;20098;-69
2022/06/13 05:17:01;;;;;;;2.78;1.10;;;15.50;99.90;;;;;;4974475;28;20105;-69
2022/06/13 05:19:35;;;;;;;2.80;0.85;;;15.50;99.90;;;;;;4974222;28;20062;-69
2022/06/13 05:22:39;;;;;;;2.63;0.93;;;15.50;99.90;;;;;;4974577;28;20026;-69
2022/06/13 05:25:41;;;;;;;4.35;1.65;;;15.50;99.90;;;;;;4974197;28;20031;-70
2022/06/13 05:28:10;;;;;;;3.85;1.45;;;15.40;99.90;;;;;;4974402;28;20026;-70
2022/06/13 05:30:47;;;;;;;5.28;1.25;;;15.30;99.90;;;;;;4974014;28;20030;-69
2022/06/13 05:33:17;;;;;;;4.93;0.82;;;15.30;99.90;;;;;;4974108;28;20031;-70
2022/06/13 05:35:46;;;;;;;4.10;1.23;;;15.30;99.90;;;;;;4972858;28;20467;-70
2022/06/13 05:38:19;;;;;;;3.97;1.10;;;15.20;99.90;;;;;;4974020;28;20034;-70
2022/06/13 05:40:47;;;;;;;2.97;0.90;;;15.20;99.90;;;;;;4974045;28;20038;-71
2022/06/13 05:43:16;;;;;;;2.92;1.13;;;15.20;99.90;;;;;;4972854;28;20436;-70
2022/06/13 05:45:44;;;;;;;4.75;1.20;;;15.10;99.90;;;;;;4973979;28;20078;-70
2022/06/13 05:48:16;;;;;;;4.28;1.25;;;15.10;99.90;;;;;;4973979;28;20113;-70
2022/06/13 05:50:44;;;;;;;4.57;1.25;;;15.10;99.90;;;;;;4977385;28;20027;-70
2022/06/13 05:53:17;;;;;;;4.20;1.30;;;15.00;99.90;;;;;;5013233;28;20036;-70
2022/06/13 05:55:45;;;;;;;5.90;1.70;;;14.90;99.90;;;;;;5013288;28;20436;-72
2022/06/13 05:58:14;;;;;;;3.88;1.40;;;14.80;99.90;;;;;;5012917;28;20122;-71
2022/06/13 06:00:46;;;;;;;5.30;2.13;;;14.70;99.90;;;;;;5011486;28;20033;-70
2022/06/13 06:03:14;;;;;;;5.20;1.10;;;14.60;99.90;;;;;;5013260;28;20024;-70
2022/06/13 06:05:42;;;;;;;3.55;1.52;;;14.60;99.90;;;;;;5012837;28;20361;-70
2022/06/13 06:08:25;;;;;;;4.72;1.77;;;14.50;99.90;;;;;;5013034;28;20022;-69
2022/06/13 06:10:56;;;;;;;6.05;1.73;;;14.30;99.90;;;;;;5013172;28;20501;-70
2022/06/13 06:13:25;;;;;;;4.72;1.45;;;14.30;99.90;;;;;;5011539;28;20401;-70
2022/06/13 06:15:52;;;;;;;4.05;1.00;;;14.20;99.90;;;;;;5012688;28;20032;-69
2022/06/13 06:18:21;;;;;;;3.33;1.20;;;14.10;99.90;;;;;;5012692;28;20022;-69
2022/06/13 06:20:49;;;;;;;3.85;1.25;;;14.10;99.90;;;;;;5013177;28;20018;-69
2022/06/13 06:23:17;;;;;;;5.57;1.58;;;14.00;99.90;;;;;;5012789;28;20044;-70
2022/06/13 06:25:47;;;;;;;4.18;1.20;;;14.00;99.90;;;;;;5012790;28;20022;-69
2022/06/13 06:28:18;;;;;;;5.30;1.52;;;13.90;99.90;;;;;;5012890;28;20021;-71
2022/06/13 06:30:46;;;;;;;5.85;1.67;;;13.80;99.90;;;;;;5012676;28;20105;-70
2022/06/13 06:33:13;;;;;;;3.17;1.00;;;13.70;99.90;;;;;;5012727;28;20083;-70
2022/06/13 06:35:41;;;;;;;4.13;1.45;;;13.60;99.90;;;;;;5013099;28;20421;-69
2022/06/13 06:38:09;;;;;;;5.20;1.80;;;13.50;99.90;;;;;;5012594;28;20083;-69
2022/06/13 06:40:38;;;;;;;2.70;1.20;;;13.40;99.90;;;;;;5012420;28;20026;-70
2022/06/13 06:43:05;;;;;;;9.57;1.80;;;13.30;99.90;;;;;;5011936;28;20092;-70
2022/06/13 06:45:34;;;;;;;8.13;1.85;;;13.30;99.90;;;;;;5016182;28;20065;-70
2022/06/13 06:48:01;;;;;;;5.88;1.50;;;13.20;99.90;;;;;;5016484;28;20022;-70
2022/06/13 06:50:34;;;;;;;7.65;1.27;;;13.10;99.90;;;;;;5015990;28;20018;-70
2022/06/13 06:53:02;;;;;;;6.40;1.70;;;13.10;99.90;;;;;;5016164;28;20037;-70
2022/06/13 07:01:07;;;;;;;5.03;1.42;;;13.00;99.90;;;;;;5016230;28;20092;-71
2022/06/13 07:03:35;;;;;;;2.75;1.10;;;13.10;99.90;;;;;;5016239;28;20029;-70
2022/06/13 07:06:04;;;;;;;4.07;1.60;;;13.00;99.90;;;;;;5015654;28;20026;-71
2022/06/13 07:08:34;;;;;;;5.97;3.47;;;12.70;99.90;;;;;;5015744;28;20033;-71
2022/06/13 07:13:50;;;;;;;5.88;2.90;;;12.40;99.90;;;;;;5015710;28;20029;-69
2022/06/13 07:16:17;;;;;;;8.05;4.07;;;12.30;99.90;;;;;;5015612;28;20026;-70
2022/06/13 07:18:45;;;;;;;10.10;6.10;;;12.20;99.90;;;;;;5015620;28;20022;-70
2022/06/13 07:21:14;;;;;;;9.00;4.55;;;12.10;99.90;;;;;;5014264;28;20033;-69
2022/06/13 07:23:41;;;;;;;5.75;2.97;;;11.90;99.90;;;;;;5015612;28;20029;-69
2022/06/13 07:26:10;;;;;;;4.47;3.35;;;11.80;99.90;;;;;;5014183;28;20029;-69
2022/06/13 07:28:38;;;;;;;6.70;3.00;;;11.70;99.90;;;;;;5015826;28;20026;-71
2022/06/13 07:31:11;;;;;;;6.82;2.92;;;11.60;99.90;;;;;;5014049;28;20397;-69
2022/06/13 07:33:38;;;;;;;7.88;3.00;;;11.60;99.90;;;;;;5013884;28;20026;-69
2022/06/13 07:36:06;;;;;;;5.72;2.60;;;11.50;99.90;;;;;;5015333;28;20105;-69
2022/06/13 07:38:33;;;;;;;6.47;2.78;;;11.40;99.90;;;;;;5015155;28;20030;-71
2022/06/13 07:41:01;;;;;;;6.80;3.85;;;11.40;99.90;;;;;;5015352;28;20462;-71
2022/06/13 07:43:35;;;;;;;7.93;4.22;;;11.40;99.90;;;;;;5013884;28;20040;-69
2022/06/13 07:46:05;;;;;;;9.20;3.78;;;11.30;99.90;;;;;;5015273;28;20117;-69
2022/06/13 07:48:33;;;;;;;7.75;3.63;;;11.20;99.90;;;;;;5015150;28;20037;-69
2022/06/13 07:51:02;;;;;;;7.70;3.88;;;11.20;99.90;;;;;;5015246;28;20041;-69
2022/06/13 07:53:29;;;;;;;7.70;4.10;;;11.10;99.90;;;;;;5015349;28;20025;-70
2022/06/13 07:55:57;;;;;;;8.95;3.42;;;11.10;99.90;;;;;;5014685;28;20104;-69
2022/06/13 07:58:33;;;;;;;8.38;3.67;;;11.10;99.90;;;;;;5014911;28;20065;-70
2022/06/13 08:01:01;;;;;;;7.05;4.38;;;11.00;99.90;;;;;;5014925;28;20018;-71
2022/06/13 08:03:32;;;;;;;7.88;4.30;;;11.00;99.90;;;;;;5013516;28;20037;-69
2022/06/13 08:06:00;;;;;;;9.20;4.72;;;11.00;99.90;;;;;;5015381;28;20083;-70
2022/06/13 08:08:27;;;;;;;8.50;4.80;;;10.90;99.90;;;;;;5013454;28;20026;-71
2022/06/13 08:10:58;;;;;;;8.77;4.57;;;10.90;99.90;;;;;;5013376;28;20128;-70
2022/06/13 08:13:25;;;;;;;9.10;4.93;;;10.80;99.90;;;;;;5014722;28;20018;-70
2022/06/13 08:15:53;;;;;;;8.20;5.15;;;10.80;99.90;;;;;;5014564;28;20518;-69
2022/06/13 08:18:20;;;;;;;9.95;4.97;;;10.80;99.90;;;;;;5012943;28;20398;-70
2022/06/13 08:20:48;;;;;;;11.70;5.20;;;10.80;99.90;;;;;;5014317;28;20014;-70
2022/06/13 08:23:17;;;;;;;10.70;5.22;;;10.70;99.90;;;;;;5014268;28;20097;-70
2022/06/13 08:25:45;;;;;;;8.95;4.93;;;10.60;99.90;;;;;;5013080;28;20025;-70
2022/06/13 08:28:16;;;;;;;9.45;5.72;;;10.60;99.90;;;;;;5014363;28;20101;-71
2022/06/13 08:30:59;;;;;;;8.70;5.70;;;10.60;99.90;;;;;;5014369;28;20030;-70
2022/06/13 08:33:27;;;;;;;8.73;6.00;;;10.60;99.90;;;;;;5014365;28;20397;-70
2022/06/13 08:35:54;;;;;;;9.02;6.57;;;10.50;99.90;;;;;;5014258;28;20045;-70
2022/06/13 08:38:23;;;;;;;13.18;6.70;;;10.50;99.90;;;;;;5014164;28;20026;-70
2022/06/13 08:41:21;;;;;;;12.63;7.45;;;10.50;99.90;;;;;;5014174;28;20434;-71
2022/06/13 08:44:38;;;;;;;11.60;7.32;;;10.40;99.90;;;;;;5014349;28;20363;-70
2022/06/13 08:47:16;;;;;;;9.40;6.53;;;10.40;99.90;;;;;;4944337;28;20524;-70
2022/06/13 08:50:04;;;;;;;10.35;7.28;;;10.20;99.90;;;;;;5014244;28;20025;-70
2022/06/13 08:52:47;;;;;;;10.98;7.20;;;10.20;99.90;;;;;;5013780;28;20038;-69
2022/06/13 08:55:20;;;;;;;11.15;6.63;;;10.20;99.90;;;;;;5012604;28;20022;-70
2022/06/13 08:58:16;;;;;;;11.25;7.40;;;10.10;99.90;;;;;;5012492;28;20097;-70
2022/06/13 09:00:56;;;;;;;12.15;9.30;;;10.00;99.90;;;;;;5013504;28;20033;-69
2022/06/13 09:03:51;;;;;;;9.00;7.68;;;10.00;99.90;;;;;;5013966;28;20018;-70
2022/06/13 09:06:19;;;;;;;10.00;7.60;;;10.00;99.90;;;;;;5011634;28;20512;-68
2022/06/13 09:08:53;;;;;;;11.60;7.53;;;10.00;99.90;;;;;;5013904;28;20486;-68
2022/06/13 09:11:43;;;;;;;12.02;8.27;;;9.90;99.90;;;;;;5012272;28;20398;-69
2022/06/13 09:14:22;;;;;;;13.05;8.32;;;9.90;99.90;;;;;;5013889;28;20058;-72
2022/06/13 09:17:17;;;;;;;11.70;7.00;;;9.80;99.90;;;;;;5012240;28;20490;-70
2022/06/13 09:20:03;;;;;;;12.65;7.50;;;9.80;99.90;;;;;;5003098;28;20100;-69
2022/06/13 09:22:46;;;;;;;12.05;8.00;;;9.70;99.90;;;;;;5013437;28;20105;-68
2022/06/13 09:26:04;;;;;;;12.50;8.38;;;9.70;99.90;;;;;;5013369;28;20046;-71
2022/06/13 09:28:43;;;;;;;12.52;8.68;;;9.70;99.90;;;;;;4970067;28;20089;-68
2022/06/13 09:31:25;;;;;;;10.48;7.88;;;9.60;99.90;;;;;;5013538;28;20022;-70
2022/06/13 09:34:11;;;;;;;12.90;7.60;;;9.60;99.90;;;;;;5013570;28;20072;-69
2022/06/13 09:37:00;;;;;;;12.73;8.32;;;9.60;99.90;;;;;;4995999;28;20092;-69
2022/06/13 09:39:28;;;;;;;13.45;8.43;;;9.50;99.90;;;;;;5011900;28;20393;-70
2022/06/13 09:42:14;;;;;;;12.13;7.78;;;9.50;99.90;;;;;;5013271;28;20429;-71
2022/06/13 09:45:05;;;;;;;12.60;8.48;;;9.60;99.90;;;;;;5013822;28;20491;-70
2022/06/13 09:47:50;;;;;;;14.10;9.40;;;9.60;99.90;;;;;;5013204;28;20029;-70
2022/06/13 09:50:25;;;;;;;13.13;9.25;;;9.50;99.90;;;;;;5013246;28;20021;-69
2022/06/13 09:53:11;;;;;;;14.50;9.30;;;9.40;99.90;;;;;;5011702;28;20046;-70
2022/06/13 09:55:48;;;;;;;16.38;10.88;;;9.30;99.90;;;;;;5011805;28;20033;-70
2022/06/13 09:58:54;;;;;;;13.68;9.30;;;9.30;99.90;;;;;;5011721;28;20026;-69
2022/06/13 10:01:39;;;;;;;13.25;8.82;;;9.30;99.90;;;;;;5013271;28;20433;-69
2022/06/13 10:04:34;;;;;;;13.85;8.75;;;9.20;99.90;;;;;;5013557;28;20022;-71
2022/06/13 10:07:27;;;;;;;14.98;9.80;;;9.10;99.90;;;;;;4973038;28;20030;-71
2022/06/13 10:10:20;;;;;;;13.52;9.13;;;9.10;99.90;;;;;;4998195;28;20402;-71
2022/06/13 10:13:05;;;;;;;13.40;9.85;;;9.00;99.90;;;;;;5013565;28;20026;-71
2022/06/13 10:16:11;;;;;;;11.80;8.65;;;9.00;99.90;;;;;;5012936;28;20161;-70
2022/06/13 10:18:56;;;;;;;14.70;9.27;;;9.00;99.90;;;;;;4966208;28;20040;-71
2022/06/13 10:21:36;;;;;;;12.85;8.98;;;9.00;99.90;;;;;;5016779;28;20033;-69
2022/06/13 10:24:34;;;;;;;15.48;9.32;;;9.00;99.90;;;;;;5015250;28;20030;-70
2022/06/13 10:27:10;;;;;;;12.07;9.35;;;9.00;99.90;;;;;;5016734;28;20029;-71
2022/06/13 10:30:07;;;;;;;16.05;9.75;;;9.00;99.90;;;;;;5015294;28;20026;-70
2022/06/13 10:32:58;;;;;;;13.10;8.93;;;9.00;99.90;;;;;;5016623;28;20034;-70
2022/06/13 10:35:28;;;;;;;16.25;9.50;;;9.00;99.90;;;;;;5016615;28;20025;-70
2022/06/13 10:38:07;;;;;;;13.57;10.13;;;9.00;99.90;;;;;;5016694;28;20022;-69
2022/06/13 10:40:35;;;;;;;15.88;10.70;;;8.90;99.90;;;;;;5016798;28;20104;-70
2022/06/13 10:43:05;;;;;;;14.70;11.18;;;8.90;99.90;;;;;;5016381;28;20033;-70
2022/06/13 10:45:39;;;;;;;14.90;10.07;;;8.90;99.90;;;;;;5016415;28;20175;-70
2022/06/13 10:48:25;;;;;;;16.30;10.88;;;8.80;99.90;;;;;;5016640;28;20018;-69
2022/06/13 10:50:54;;;;;;;15.73;10.50;;;8.80;99.90;;;;;;5014933;28;20053;-70
2022/06/13 10:53:41;;;;;;;14.50;10.40;;;8.80;99.90;;;;;;5014908;28;20018;-70
2022/06/13 10:56:35;;;;;;;16.02;10.20;;;8.70;99.90;;;;;;5014896;28;20056;-70
2022/06/13 10:59:03;;;;;;;14.60;10.60;;;8.70;99.90;;;;;;5014736;28;20405;-70
2022/06/13 11:01:32;;;;;;;14.65;10.35;;;8.60;99.90;;;;;;5014676;28;20026;-70
2022/06/13 11:04:35;;;;;;;14.45;10.52;;;8.60;99.90;;;;;;5016025;28;20494;-70
2022/06/13 11:07:11;;;;;;;17.10;11.55;;;8.60;99.90;;;;;;4955654;29;20416;-70
2022/06/13 11:09:39;;;;;;;14.52;10.10;;;8.50;99.90;;;;;;5021757;28;20033;-70
2022/06/13 11:12:27;;;;;;;17.45;11.52;;;8.40;99.90;;;;;;5014677;28;20034;-69
2022/06/13 11:23:28;;;;;;;16.42;11.13;;;8.40;99.90;;;;;;5015983;28;20403;-69
2022/06/13 11:25:58;;;;;;;15.45;11.18;;;8.40;99.90;;;;;;5014281;28;20022;-70
2022/06/13 11:28:29;;;;;;;16.65;11.02;;;8.40;99.90;;;;;;5014156;28;20033;-69
2022/06/13 11:31:26;;;;;;;16.92;11.57;;;8.30;99.90;;;;;;5015379;28;20026;-69
2022/06/13 11:33:54;;;;;;;14.15;10.73;;;8.30;99.90;;;;;;5015432;28;20053;-70
2022/06/13 11:36:25;;;;;;;16.35;10.40;;;8.30;99.90;;;;;;5014147;28;20041;-70
2022/06/13 11:38:59;;;;;;;;;;;8.30;99.90;;;;;;5015732;28;20042;-69
2022/06/13 11:41:33;;;;;;;15.60;9.88;;;8.20;99.90;;;;;;5015473;28;19965;-69
2022/06/13 11:44:12;;;;;;;14.45;10.55;;;8.20;99.90;;;;;;5015514;28;20486;-70
2022/06/13 11:46:54;;;;;;;14.75;11.13;;;8.20;99.90;;;;;;5015226;28;20013;-70
2022/06/13 11:49:25;;;;;;;14.25;10.27;;;8.20;99.90;;;;;;5016095;28;20161;-70
2022/06/13 11:51:56;;;;;;;15.23;9.90;;;8.20;99.90;;;;;;5014816;28;20054;-70
2022/06/13 11:54:26;;;;;;;14.00;11.02;;;8.20;99.90;;;;;;5013499;28;20037;-69
2022/06/13 11:57:14;;;;;;;14.32;10.15;;;8.20;99.90;;;;;;5014890;28;20048;-69
2022/06/13 11:59:49;;;;;;;14.07;10.40;;;8.10;99.90;;;;;;5004528;28;20038;-69
2022/06/13 12:02:39;;;;;;;17.55;10.38;;;8.10;99.90;;;;;;5014843;28;20024;-69
2022/06/13 12:05:32;;;;;;;16.02;11.20;;;8.10;99.90;;;;;;5005624;28;20049;-69
2022/06/13 12:08:04;;;;;;;16.23;10.68;;;8.10;99.90;;;;;;5015238;28;20030;-69
2022/06/13 12:10:41;;;;;;;15.85;10.88;;;8.10;99.90;;;;;;5014620;28;20498;-69
2022/06/13 12:13:17;;;;;;;15.30;11.02;;;8.00;99.90;;;;;;4997343;28;20117;-69
2022/06/13 12:16:00;;;;;;;15.45;10.80;;;7.90;99.90;;;;;;5013136;28;20018;-69
2022/06/13 12:19:21;;;;;;;18.25;12.02;;;8.00;99.90;;;;;;5013198;28;20482;-69
2022/06/13 12:22:08;;;;;;;17.35;11.45;;;8.00;99.90;;;;;;4934938;29;20032;-70
2022/06/13 12:25:05;;;;;;;15.40;10.55;;;7.90;99.90;;;;;;4974380;28;20033;-70
2022/06/13 12:27:35;;;;;;;16.48;10.55;;;7.90;99.90;;;;;;5014308;28;20108;-70
2022/06/13 12:30:09;;;;;;;16.80;11.27;;;7.90;99.90;;;;;;5013063;28;20485;-71
2022/06/13 12:32:46;;;;;;;18.77;11.65;;;7.90;99.90;;;;;;5014474;28;20018;-70
2022/06/13 12:35:34;;;;;;;15.55;10.80;;;7.90;99.90;;;;;;5014503;28;20030;-70
2022/06/13 12:38:11;;;;;;;14.82;10.70;;;7.90;99.90;;;;;;5014340;28;20462;-69
2022/06/13 12:40:50;;;;;;;16.85;12.48;;;7.80;99.90;;;;;;5014350;28;20022;-69
2022/06/13 12:43:35;;;;;;;15.98;12.15;;;7.80;99.90;;;;;;5014074;28;20053;-69
2022/06/13 12:46:26;;;;;;;14.00;10.68;;;7.80;99.90;;;;;;5014087;28;20109;-68
2022/06/13 12:49:05;;;;;;;18.83;11.35;;;7.80;99.90;;;;;;5012725;28;20022;-69
2022/06/13 12:51:40;;;;;;;16.17;10.55;;;7.80;99.90;;;;;;5013919;28;20104;-69
2022/06/13 12:54:15;;;;;;;14.10;10.50;;;7.80;99.90;;;;;;5012593;28;20032;-69
2022/06/13 12:56:56;;;;;;;12.95;10.05;;;7.70;99.90;;;;;;5014368;28;20022;-69
2022/06/13 12:59:34;;;;;;;16.98;9.88;;;7.70;99.90;;;;;;5012660;28;20482;-69
2022/06/13 13:02:01;;;;;;;14.70;10.13;;;7.80;99.90;;;;;;5013923;28;20018;-69
2022/06/13 13:04:55;;;;;;;15.73;9.48;;;7.70;99.90;;;;;;5012432;28;20029;-69
2022/06/13 13:07:48;;;;;;;14.05;10.20;;;7.70;99.90;;;;;;5013848;28;20029;-69
2022/06/13 13:10:29;;;;;;;14.07;10.10;;;7.70;99.90;;;;;;5013261;28;20038;-69
2022/06/13 13:13:11;;;;;;;13.68;9.50;;;7.70;99.90;;;;;;5013913;28;20018;-69
2022/06/13 13:16:27;;;;;;;12.05;9.43;;;7.60;99.90;;;;;;5013961;28;20557;-69
2022/06/13 13:19:00;;;;;;;13.57;9.60;;;7.70;99.90;;;;;;4991222;28;20117;-69
2022/06/13 13:21:46;;;;;;;15.68;9.77;;;7.70;99.90;;;;;;5014062;28;20025;-69
2022/06/13 13:24:57;;;;;;;11.43;8.00;;;7.70;99.90;;;;;;5013508;28;20105;-69
2022/06/13 13:27:26;;;;;;;11.45;8.00;;;7.80;99.90;;;;;;5008376;28;20116;-70
2022/06/13 13:30:06;;;;;;;12.18;8.70;;;7.80;99.90;;;;;;5011842;28;20025;-69
2022/06/13 13:32:41;;;;;;;11.05;7.30;;;7.70;99.90;;;;;;5013682;28;20025;-70
2022/06/13 13:35:23;;;;;;;11.00;7.30;;;7.70;99.90;;;;;;5013585;28;20022;-69
2022/06/13 13:37:53;;;;;;;9.32;6.53;;;7.60;99.90;;;;;;5013534;28;20026;-69
2022/06/13 13:40:27;;;;;;;13.98;7.35;;;7.60;99.90;;;;;;5013230;28;20074;-70
2022/06/13 13:43:03;;;;;;;11.48;6.70;;;7.70;99.90;;;;;;5013235;28;20504;-69
2022/06/13 13:45:59;;;;;;;10.73;6.93;;;7.70;99.90;;;;;;5013300;28;20026;-69
2022/06/13 13:48:37;;;;;;;8.80;6.45;;;7.60;99.90;;;;;;5013133;28;20395;-70
2022/06/13 13:51:30;;;;;;;9.70;6.57;;;7.60;99.90;;;;;;5013158;28;20042;-69
2022/06/13 13:54:09;;;;;;;9.55;6.25;;;7.60;99.90;;;;;;5012808;28;20101;-69
2022/06/13 13:56:42;;;;;;;8.82;6.05;;;7.70;99.90;;;;;;5011738;28;20456;-69
2022/06/13 13:59:17;;;;;;;9.60;7.00;;;7.60;99.90;;;;;;5012957;28;20397;-70
2022/06/13 14:02:05;;;;;;;11.05;6.72;;;7.60;99.90;;;;;;5013347;28;20045;-69
2022/06/13 14:04:39;;;;;;;10.95;7.57;;;7.60;99.90;;;;;;5012992;28;20028;-69